SCX3018 KMCI-KLAS
Flight info
| Callsign | SCX3018 |
|---|---|
| Flight time | 2h 48m |
| Altitude | 38000 |
| Route | WLDCT6 SLN ZAMPO LAA KD45S DICEE TYEGR CHOWW3 |
| Aircraft | B738/M-SDE2E3FGHIRWXY/LB1 |
Departure
| Time | 2026-05-06 12:47 |
|---|---|
| Airport | Kansas City International Airport (KMCI) |
Arrival
| Time | 2026-05-06 15:35 |
|---|---|
| Airport | Harry Reid International Airport (KLAS) |
| Time | Latitude | Longitude | Altitude | Speed | Heading |
|---|---|---|---|---|---|
| 2026-05-06 12:11 | 39.31054 | -94.71942 | 1013 ft | 0 kts | 103° |
| 2026-05-06 12:36 | 39.31054 | -94.71943 | 1013 ft | 0 kts | 103° |
| 2026-05-06 12:37 | 39.31057 | -94.71957 | 1013 ft | 3 kts | 96° |
| 2026-05-06 12:37 | 39.31057 | -94.71982 | 1013 ft | 3 kts | 72° |
| 2026-05-06 12:37 | 39.31048 | -94.72004 | 1013 ft | 3 kts | 42° |
| 2026-05-06 12:37 | 39.31032 | -94.72018 | 1013 ft | 3 kts | 20° |
| 2026-05-06 12:38 | 39.31013 | -94.72025 | 1013 ft | 3 kts | 10° |
| 2026-05-06 12:38 | 39.30993 | -94.72029 | 1013 ft | 3 kts | 9° |
| 2026-05-06 12:38 | 39.30981 | -94.72032 | 1013 ft | 0 kts | 15° |
| 2026-05-06 12:40 | 39.30997 | -94.72034 | 1013 ft | 9 kts | 344° |
| 2026-05-06 12:41 | 39.31005 | -94.72153 | 1013 ft | 21 kts | 221° |
| 2026-05-06 12:41 | 39.30840 | -94.72210 | 1013 ft | 26 kts | 191° |
| 2026-05-06 12:41 | 39.30672 | -94.72263 | 1013 ft | 24 kts | 194° |
| 2026-05-06 12:41 | 39.30517 | -94.72309 | 1013 ft | 23 kts | 192° |
| 2026-05-06 12:42 | 39.30365 | -94.72354 | 1013 ft | 22 kts | 192° |
| 2026-05-06 12:42 | 39.30217 | -94.72397 | 1013 ft | 21 kts | 193° |
| 2026-05-06 12:42 | 39.30073 | -94.72439 | 1014 ft | 21 kts | 193° |
| 2026-05-06 12:42 | 39.29934 | -94.72480 | 1014 ft | 20 kts | 192° |
| 2026-05-06 12:43 | 39.29798 | -94.72518 | 1014 ft | 20 kts | 192° |
| 2026-05-06 12:43 | 39.29668 | -94.72558 | 1013 ft | 19 kts | 194° |
| 2026-05-06 12:43 | 39.29542 | -94.72597 | 1013 ft | 18 kts | 192° |
| 2026-05-06 12:43 | 39.29419 | -94.72631 | 1013 ft | 18 kts | 192° |
| 2026-05-06 12:44 | 39.29309 | -94.72682 | 1013 ft | 17 kts | 237° |
| 2026-05-06 12:44 | 39.29313 | -94.72826 | 1012 ft | 16 kts | 284° |
| 2026-05-06 12:44 | 39.29385 | -94.72919 | 1011 ft | 15 kts | 351° |
| 2026-05-06 12:44 | 39.29439 | -94.72915 | 1011 ft | 0 kts | 14° |
| 2026-05-06 12:46 | 39.29495 | -94.72897 | 1012 ft | 38 kts | 13° |
| 2026-05-06 12:46 | 39.30047 | -94.72730 | 1016 ft | 121 kts | 13° |
| 2026-05-06 12:46 | 39.30531 | -94.72586 | 1016 ft | 158 kts | 11° |
| 2026-05-06 12:47 | 39.31742 | -94.72250 | 1520 ft | 188 kts | 12° |
| 2026-05-06 12:47 | 39.33049 | -94.71875 | 2413 ft | 201 kts | 12° |
| 2026-05-06 12:47 | 39.34535 | -94.71454 | 2734 ft | 232 kts | 12° |
| 2026-05-06 12:47 | 39.36117 | -94.71346 | 3594 ft | 229 kts | 348° |
| 2026-05-06 12:48 | 39.37652 | -94.72038 | 4144 ft | 242 kts | 338° |
| 2026-05-06 12:48 | 39.39221 | -94.72890 | 4806 ft | 252 kts | 337° |
| 2026-05-06 12:48 | 39.40837 | -94.73780 | 5827 ft | 251 kts | 338° |
| 2026-05-06 12:48 | 39.42443 | -94.74673 | 6823 ft | 252 kts | 337° |
| 2026-05-06 12:49 | 39.44070 | -94.75582 | 7698 ft | 255 kts | 336° |
| 2026-05-06 12:49 | 39.45515 | -94.76911 | 8580 ft | 261 kts | 311° |
| 2026-05-06 12:49 | 39.46317 | -94.79025 | 9503 ft | 268 kts | 284° |
| 2026-05-06 12:49 | 39.46267 | -94.81451 | 10359 ft | 279 kts | 258° |
| 2026-05-06 12:50 | 39.45483 | -94.83904 | 10673 ft | 306 kts | 246° |
| 2026-05-06 12:50 | 39.44427 | -94.86380 | 11007 ft | 326 kts | 243° |
| 2026-05-06 12:50 | 39.43264 | -94.88925 | 11783 ft | 330 kts | 242° |
| 2026-05-06 12:50 | 39.42091 | -94.91459 | 12772 ft | 327 kts | 242° |
| 2026-05-06 12:51 | 39.40932 | -94.93979 | 13738 ft | 326 kts | 242° |
| 2026-05-06 12:51 | 39.39780 | -94.96509 | 14508 ft | 328 kts | 242° |
| 2026-05-06 12:51 | 39.38620 | -94.99078 | 15185 ft | 332 kts | 242° |
| 2026-05-06 12:51 | 39.38353 | -94.99671 | 15363 ft | 332 kts | 242° |
| 2026-05-06 12:52 | 39.37227 | -95.02178 | 16156 ft | 331 kts | 242° |
| 2026-05-06 12:52 | 39.36073 | -95.04748 | 16999 ft | 331 kts | 242° |
| 2026-05-06 12:52 | 39.34918 | -95.07326 | 17789 ft | 332 kts | 242° |
| 2026-05-06 12:52 | 39.33761 | -95.09907 | 18536 ft | 333 kts | 242° |
| 2026-05-06 12:53 | 39.32601 | -95.12496 | 19201 ft | 333 kts | 242° |
| 2026-05-06 12:53 | 39.31440 | -95.15085 | 19901 ft | 333 kts | 242° |
| 2026-05-06 12:53 | 39.30279 | -95.17671 | 20576 ft | 333 kts | 242° |
| 2026-05-06 12:53 | 39.29115 | -95.20262 | 21236 ft | 334 kts | 242° |
| 2026-05-06 12:54 | 39.27947 | -95.22861 | 21884 ft | 335 kts | 242° |
| 2026-05-06 12:54 | 39.26778 | -95.25461 | 22514 ft | 336 kts | 242° |
| 2026-05-06 12:54 | 39.25602 | -95.28073 | 23143 ft | 336 kts | 242° |
| 2026-05-06 12:54 | 39.24440 | -95.30652 | 23739 ft | 337 kts | 242° |
| 2026-05-06 12:55 | 39.23259 | -95.33268 | 24279 ft | 337 kts | 242° |
| 2026-05-06 12:55 | 39.22191 | -95.35946 | 24812 ft | 334 kts | 248° |
| 2026-05-06 12:55 | 39.21401 | -95.38747 | 25453 ft | 330 kts | 252° |
| 2026-05-06 12:55 | 39.20871 | -95.41617 | 26050 ft | 329 kts | 258° |
| 2026-05-06 12:56 | 39.20520 | -95.44526 | 26605 ft | 328 kts | 259° |
| 2026-05-06 12:56 | 39.20192 | -95.47431 | 27118 ft | 327 kts | 259° |
| 2026-05-06 12:56 | 39.19867 | -95.50340 | 27605 ft | 327 kts | 259° |
| 2026-05-06 12:56 | 39.19541 | -95.53233 | 28083 ft | 327 kts | 259° |
| 2026-05-06 12:57 | 39.19210 | -95.56132 | 28570 ft | 326 kts | 259° |
| 2026-05-06 12:57 | 39.18877 | -95.59019 | 29053 ft | 325 kts | 259° |
| 2026-05-06 12:57 | 39.18543 | -95.61897 | 29507 ft | 325 kts | 259° |
| 2026-05-06 12:57 | 39.18206 | -95.64781 | 29907 ft | 325 kts | 259° |
| 2026-05-06 12:58 | 39.17867 | -95.67672 | 30262 ft | 326 kts | 259° |
| 2026-05-06 12:58 | 39.17531 | -95.70530 | 30570 ft | 327 kts | 259° |
| 2026-05-06 12:58 | 39.17188 | -95.73431 | 30846 ft | 328 kts | 258° |
| 2026-05-06 12:58 | 39.16846 | -95.76332 | 31224 ft | 326 kts | 258° |
| 2026-05-06 12:59 | 39.16506 | -95.79203 | 31680 ft | 323 kts | 258° |
| 2026-05-06 12:59 | 39.16169 | -95.82047 | 32111 ft | 320 kts | 258° |
| 2026-05-06 12:59 | 39.15832 | -95.84878 | 32472 ft | 319 kts | 258° |
| 2026-05-06 12:59 | 39.15496 | -95.87699 | 32822 ft | 318 kts | 258° |
| 2026-05-06 13:00 | 39.15162 | -95.90502 | 33207 ft | 316 kts | 258° |
| 2026-05-06 13:00 | 39.14828 | -95.93285 | 33613 ft | 313 kts | 258° |
| 2026-05-06 13:00 | 39.14494 | -95.96049 | 33986 ft | 312 kts | 257° |
| 2026-05-06 13:00 | 39.14150 | -95.98805 | 34291 ft | 311 kts | 257° |
| 2026-05-06 13:01 | 39.13815 | -96.01468 | 34511 ft | 311 kts | 257° |
| 2026-05-06 13:01 | 39.13467 | -96.04228 | 34712 ft | 312 kts | 257° |
| 2026-05-06 13:01 | 39.13118 | -96.06987 | 34963 ft | 312 kts | 257° |
| 2026-05-06 13:01 | 39.12770 | -96.09740 | 35232 ft | 312 kts | 257° |
| 2026-05-06 13:02 | 39.12537 | -96.11576 | 35309 ft | 314 kts | 257° |
| 2026-05-06 13:02 | 39.12253 | -96.13814 | 35442 ft | 315 kts | 258° |
| 2026-05-06 13:02 | 39.11901 | -96.16593 | 35700 ft | 314 kts | 258° |
| 2026-05-06 13:03 | 39.11548 | -96.19376 | 35937 ft | 314 kts | 258° |
| 2026-05-06 13:03 | 39.11193 | -96.22165 | 36119 ft | 315 kts | 258° |
| 2026-05-06 13:03 | 39.10838 | -96.24950 | 36331 ft | 315 kts | 258° |
| 2026-05-06 13:03 | 39.10487 | -96.27701 | 36538 ft | 316 kts | 258° |
| 2026-05-06 13:04 | 39.10129 | -96.30493 | 36727 ft | 316 kts | 258° |
| 2026-05-06 13:04 | 39.09772 | -96.33284 | 36930 ft | 317 kts | 258° |
| 2026-05-06 13:04 | 39.09413 | -96.36081 | 37107 ft | 317 kts | 258° |
| 2026-05-06 13:05 | 39.08681 | -96.41755 | 37184 ft | 325 kts | 258° |
| 2026-05-06 13:05 | 39.07929 | -96.47567 | 37249 ft | 332 kts | 258° |
| 2026-05-06 13:06 | 39.07162 | -96.53468 | 37396 ft | 335 kts | 258° |
| 2026-05-06 13:06 | 39.06778 | -96.56426 | 37581 ft | 335 kts | 258° |
| 2026-05-06 13:06 | 39.06392 | -96.59383 | 37737 ft | 335 kts | 258° |
| 2026-05-06 13:06 | 39.06005 | -96.62349 | 37862 ft | 335 kts | 258° |
| 2026-05-06 13:07 | 39.05621 | -96.65282 | 37984 ft | 336 kts | 258° |
| 2026-05-06 13:07 | 39.05233 | -96.68236 | 38093 ft | 334 kts | 258° |
| 2026-05-06 13:07 | 39.04845 | -96.71185 | 38144 ft | 334 kts | 258° |
| 2026-05-06 13:08 | 39.04067 | -96.77085 | 38156 ft | 334 kts | 258° |
| 2026-05-06 13:08 | 39.03285 | -96.82981 | 38158 ft | 333 kts | 258° |
| 2026-05-06 13:09 | 39.02507 | -96.88830 | 38169 ft | 334 kts | 258° |
| 2026-05-06 13:09 | 39.01718 | -96.94735 | 38155 ft | 336 kts | 258° |
| 2026-05-06 13:10 | 39.00940 | -97.00542 | 38146 ft | 337 kts | 258° |
| 2026-05-06 13:10 | 39.00139 | -97.06489 | 38135 ft | 338 kts | 258° |
| 2026-05-06 13:11 | 38.99334 | -97.12443 | 38135 ft | 338 kts | 258° |
| 2026-05-06 13:11 | 38.98527 | -97.18395 | 38129 ft | 338 kts | 258° |
| 2026-05-06 13:12 | 38.97715 | -97.24355 | 38123 ft | 339 kts | 258° |
| 2026-05-06 13:12 | 38.96900 | -97.30314 | 38131 ft | 338 kts | 258° |
| 2026-05-06 13:13 | 38.96081 | -97.36275 | 38123 ft | 339 kts | 258° |
| 2026-05-06 13:13 | 38.95258 | -97.42246 | 38121 ft | 339 kts | 258° |
| 2026-05-06 13:14 | 38.94439 | -97.48167 | 38125 ft | 338 kts | 258° |
| 2026-05-06 13:14 | 38.93614 | -97.54114 | 38162 ft | 338 kts | 258° |
| 2026-05-06 13:15 | 38.92785 | -97.60058 | 38165 ft | 338 kts | 257° |
| 2026-05-06 13:16 | 38.92723 | -97.60506 | 38164 ft | 338 kts | 257° |
| 2026-05-06 13:16 | 38.92082 | -97.66504 | 38172 ft | 339 kts | 260° |
| 2026-05-06 13:17 | 38.91570 | -97.72538 | 38168 ft | 340 kts | 261° |
| 2026-05-06 13:17 | 38.91059 | -97.78531 | 38157 ft | 340 kts | 260° |
| 2026-05-06 13:18 | 38.90535 | -97.84563 | 38152 ft | 340 kts | 260° |
| 2026-05-06 13:18 | 38.90005 | -97.90590 | 38153 ft | 340 kts | 260° |
| 2026-05-06 13:19 | 38.89469 | -97.96631 | 38147 ft | 340 kts | 260° |
| 2026-05-06 13:19 | 38.88938 | -98.02561 | 38140 ft | 341 kts | 260° |
| 2026-05-06 13:20 | 38.88394 | -98.08609 | 38130 ft | 342 kts | 260° |
| 2026-05-06 13:20 | 38.87847 | -98.14655 | 38128 ft | 342 kts | 260° |
| 2026-05-06 13:21 | 38.87293 | -98.20744 | 38138 ft | 342 kts | 260° |
| 2026-05-06 13:21 | 38.86737 | -98.26812 | 38136 ft | 343 kts | 260° |
| 2026-05-06 13:22 | 38.86178 | -98.32885 | 38131 ft | 343 kts | 260° |
| 2026-05-06 13:22 | 38.85613 | -98.38985 | 38144 ft | 345 kts | 260° |
| 2026-05-06 13:23 | 38.85042 | -98.45110 | 38149 ft | 346 kts | 260° |
| 2026-05-06 13:23 | 38.84466 | -98.51259 | 38149 ft | 347 kts | 260° |
| 2026-05-06 13:24 | 38.83984 | -98.56374 | 38149 ft | 348 kts | 260° |
| 2026-05-06 13:24 | 38.83400 | -98.62540 | 38154 ft | 348 kts | 260° |
| 2026-05-06 13:25 | 38.82813 | -98.68705 | 38160 ft | 348 kts | 260° |
| 2026-05-06 13:25 | 38.82222 | -98.74870 | 38151 ft | 349 kts | 260° |
| 2026-05-06 13:26 | 38.81631 | -98.81003 | 38161 ft | 349 kts | 260° |
| 2026-05-06 13:26 | 38.81033 | -98.87186 | 38157 ft | 350 kts | 260° |
| 2026-05-06 13:27 | 38.80429 | -98.93378 | 38154 ft | 350 kts | 259° |
| 2026-05-06 13:27 | 38.79823 | -98.99567 | 38158 ft | 350 kts | 259° |
| 2026-05-06 13:28 | 38.79224 | -99.05656 | 38175 ft | 350 kts | 259° |
| 2026-05-06 13:28 | 38.78610 | -99.11851 | 38174 ft | 350 kts | 259° |
| 2026-05-06 13:29 | 38.77993 | -99.18046 | 38184 ft | 351 kts | 259° |
| 2026-05-06 13:29 | 38.77371 | -99.24256 | 38183 ft | 351 kts | 259° |
| 2026-05-06 13:30 | 38.76750 | -99.30427 | 38185 ft | 351 kts | 259° |
| 2026-05-06 13:30 | 38.76122 | -99.36629 | 38184 ft | 351 kts | 259° |
| 2026-05-06 13:31 | 38.75490 | -99.42842 | 38171 ft | 351 kts | 259° |
| 2026-05-06 13:31 | 38.74855 | -99.49046 | 38178 ft | 352 kts | 259° |
| 2026-05-06 13:32 | 38.74214 | -99.55275 | 38176 ft | 353 kts | 259° |
| 2026-05-06 13:32 | 38.73567 | -99.61532 | 38173 ft | 354 kts | 259° |
| 2026-05-06 13:33 | 38.72917 | -99.67788 | 38173 ft | 355 kts | 259° |
| 2026-05-06 13:33 | 38.72266 | -99.74020 | 38173 ft | 355 kts | 259° |
| 2026-05-06 13:34 | 38.71607 | -99.80293 | 38172 ft | 355 kts | 259° |
| 2026-05-06 13:34 | 38.70945 | -99.86568 | 38177 ft | 356 kts | 259° |
| 2026-05-06 13:35 | 38.70276 | -99.92862 | 38178 ft | 357 kts | 259° |
| 2026-05-06 13:35 | 38.69604 | -99.99160 | 38178 ft | 357 kts | 259° |
| 2026-05-06 13:36 | 38.68940 | -100.05351 | 38166 ft | 357 kts | 259° |
| 2026-05-06 13:36 | 38.68267 | -100.11624 | 38166 ft | 354 kts | 258° |
| 2026-05-06 13:37 | 38.67590 | -100.17852 | 38173 ft | 352 kts | 258° |
| 2026-05-06 13:37 | 38.66915 | -100.24056 | 38172 ft | 352 kts | 258° |
| 2026-05-06 13:38 | 38.66239 | -100.30228 | 38187 ft | 352 kts | 258° |
| 2026-05-06 13:38 | 38.65243 | -100.36331 | 38184 ft | 351 kts | 254° |
| 2026-05-06 13:39 | 38.64094 | -100.42451 | 38190 ft | 356 kts | 254° |
| 2026-05-06 13:39 | 38.62932 | -100.48637 | 38188 ft | 359 kts | 254° |
| 2026-05-06 13:40 | 38.61765 | -100.54875 | 38185 ft | 362 kts | 254° |
| 2026-05-06 13:40 | 38.60590 | -100.61156 | 38180 ft | 364 kts | 254° |
| 2026-05-06 13:41 | 38.59408 | -100.67461 | 38194 ft | 366 kts | 254° |
| 2026-05-06 13:41 | 38.58216 | -100.73804 | 38193 ft | 367 kts | 254° |
| 2026-05-06 13:42 | 38.57020 | -100.80148 | 38192 ft | 367 kts | 254° |
| 2026-05-06 13:42 | 38.55824 | -100.86474 | 38195 ft | 366 kts | 254° |
| 2026-05-06 13:43 | 38.54625 | -100.92794 | 38194 ft | 366 kts | 254° |
| 2026-05-06 13:43 | 38.53432 | -100.99065 | 38192 ft | 365 kts | 254° |
| 2026-05-06 13:44 | 38.52244 | -101.05284 | 38187 ft | 365 kts | 254° |
| 2026-05-06 13:44 | 38.51037 | -101.11587 | 38192 ft | 365 kts | 254° |
| 2026-05-06 13:45 | 38.49862 | -101.17704 | 38187 ft | 366 kts | 254° |
| 2026-05-06 13:45 | 38.48037 | -101.27167 | 38183 ft | 366 kts | 254° |
| 2026-05-06 13:46 | 38.46814 | -101.33481 | 38174 ft | 367 kts | 254° |
| 2026-05-06 13:46 | 38.45582 | -101.39821 | 38182 ft | 369 kts | 254° |
| 2026-05-06 13:47 | 38.44349 | -101.46151 | 38175 ft | 371 kts | 254° |
| 2026-05-06 13:47 | 38.43101 | -101.52535 | 38175 ft | 371 kts | 254° |
| 2026-05-06 13:48 | 38.41847 | -101.58934 | 38175 ft | 372 kts | 254° |
| 2026-05-06 13:48 | 38.40588 | -101.65336 | 38166 ft | 373 kts | 254° |
| 2026-05-06 13:49 | 38.39320 | -101.71765 | 38163 ft | 374 kts | 253° |
| 2026-05-06 13:49 | 38.38043 | -101.78217 | 38160 ft | 376 kts | 253° |
| 2026-05-06 13:50 | 38.36758 | -101.84690 | 38162 ft | 377 kts | 253° |
| 2026-05-06 13:50 | 38.35475 | -101.91136 | 38148 ft | 378 kts | 253° |
| 2026-05-06 13:51 | 38.34179 | -101.97621 | 38147 ft | 377 kts | 253° |
| 2026-05-06 13:51 | 38.32905 | -102.03981 | 38150 ft | 377 kts | 253° |
| 2026-05-06 13:52 | 38.31602 | -102.10466 | 38156 ft | 379 kts | 253° |
| 2026-05-06 13:52 | 38.30289 | -102.16978 | 38145 ft | 381 kts | 253° |
| 2026-05-06 13:53 | 38.28965 | -102.23524 | 38147 ft | 382 kts | 253° |
| 2026-05-06 13:53 | 38.27643 | -102.30043 | 38144 ft | 384 kts | 253° |
| 2026-05-06 13:54 | 38.26303 | -102.36628 | 38140 ft | 384 kts | 253° |
| 2026-05-06 13:54 | 38.24964 | -102.43193 | 38140 ft | 384 kts | 253° |
| 2026-05-06 13:55 | 38.23611 | -102.49798 | 38153 ft | 386 kts | 253° |
| 2026-05-06 13:55 | 38.22251 | -102.56426 | 38153 ft | 388 kts | 253° |
| 2026-05-06 13:56 | 38.20892 | -102.63030 | 38151 ft | 389 kts | 253° |
| 2026-05-06 13:56 | 38.19584 | -102.69656 | 38141 ft | 384 kts | 257° |
| 2026-05-06 13:57 | 38.18847 | -102.76362 | 38146 ft | 383 kts | 259° |
| 2026-05-06 13:57 | 38.18133 | -102.83106 | 38154 ft | 385 kts | 259° |
| 2026-05-06 13:58 | 38.17403 | -102.89879 | 38148 ft | 388 kts | 259° |
| 2026-05-06 13:58 | 38.16660 | -102.96678 | 38146 ft | 389 kts | 259° |
| 2026-05-06 13:59 | 38.15924 | -103.03352 | 38140 ft | 390 kts | 259° |
| 2026-05-06 13:59 | 38.15165 | -103.10193 | 38121 ft | 391 kts | 259° |
| 2026-05-06 14:00 | 38.14403 | -103.17027 | 38118 ft | 392 kts | 259° |
| 2026-05-06 14:00 | 38.13632 | -103.23896 | 38135 ft | 394 kts | 259° |
| 2026-05-06 14:01 | 38.12854 | -103.30797 | 38138 ft | 396 kts | 259° |
| 2026-05-06 14:01 | 38.12069 | -103.37720 | 38134 ft | 395 kts | 259° |
| 2026-05-06 14:02 | 38.11289 | -103.44566 | 38136 ft | 394 kts | 259° |
| 2026-05-06 14:02 | 38.10501 | -103.51446 | 38129 ft | 394 kts | 259° |
| 2026-05-06 14:03 | 38.09705 | -103.58354 | 38142 ft | 395 kts | 259° |
| 2026-05-06 14:03 | 38.08902 | -103.65277 | 38143 ft | 397 kts | 259° |
| 2026-05-06 14:04 | 38.08097 | -103.72193 | 38135 ft | 398 kts | 259° |
| 2026-05-06 14:04 | 38.07282 | -103.79155 | 38120 ft | 399 kts | 259° |
| 2026-05-06 14:05 | 38.06463 | -103.86117 | 38120 ft | 399 kts | 259° |
| 2026-05-06 14:05 | 38.05636 | -103.93111 | 38124 ft | 402 kts | 259° |
| 2026-05-06 14:06 | 38.04804 | -104.00104 | 38119 ft | 404 kts | 259° |
| 2026-05-06 14:06 | 38.03968 | -104.07100 | 38099 ft | 404 kts | 259° |
| 2026-05-06 14:07 | 38.03123 | -104.14138 | 38109 ft | 403 kts | 259° |
| 2026-05-06 14:07 | 38.02276 | -104.21155 | 38115 ft | 403 kts | 259° |
| 2026-05-06 14:08 | 38.01421 | -104.28191 | 38110 ft | 404 kts | 259° |
| 2026-05-06 14:08 | 38.00561 | -104.35239 | 38115 ft | 405 kts | 259° |
| 2026-05-06 14:09 | 38.00422 | -104.36380 | 38112 ft | 405 kts | 259° |
| 2026-05-06 14:09 | 38.00204 | -104.38161 | 38112 ft | 405 kts | 259° |
| 2026-05-06 14:10 | 37.99342 | -104.45169 | 38117 ft | 406 kts | 259° |
| 2026-05-06 14:10 | 37.98468 | -104.52246 | 38113 ft | 407 kts | 259° |
| 2026-05-06 14:11 | 37.97588 | -104.59335 | 38108 ft | 407 kts | 259° |
| 2026-05-06 14:11 | 37.96703 | -104.66425 | 38098 ft | 407 kts | 259° |
| 2026-05-06 14:12 | 37.95963 | -104.72330 | 38093 ft | 407 kts | 259° |
| 2026-05-06 14:12 | 37.95071 | -104.79413 | 38094 ft | 407 kts | 259° |
| 2026-05-06 14:13 | 37.94174 | -104.86500 | 38094 ft | 407 kts | 259° |
| 2026-05-06 14:13 | 37.93274 | -104.93579 | 38080 ft | 407 kts | 259° |
| 2026-05-06 14:14 | 37.92428 | -105.00194 | 38077 ft | 408 kts | 259° |
| 2026-05-06 14:14 | 37.91543 | -105.07087 | 38091 ft | 409 kts | 259° |
| 2026-05-06 14:15 | 37.90623 | -105.14218 | 38073 ft | 411 kts | 259° |
| 2026-05-06 14:15 | 37.89695 | -105.21372 | 38080 ft | 411 kts | 259° |
| 2026-05-06 14:16 | 37.88765 | -105.28511 | 38033 ft | 410 kts | 259° |
| 2026-05-06 14:16 | 37.87834 | -105.35611 | 38046 ft | 414 kts | 259° |
| 2026-05-06 14:17 | 37.86886 | -105.42825 | 38010 ft | 416 kts | 259° |
| 2026-05-06 14:17 | 37.85932 | -105.50052 | 37993 ft | 415 kts | 259° |
| 2026-05-06 14:18 | 37.84972 | -105.57276 | 37981 ft | 417 kts | 259° |
| 2026-05-06 14:18 | 37.84001 | -105.64540 | 37940 ft | 419 kts | 260° |
| 2026-05-06 14:19 | 37.83025 | -105.71812 | 37933 ft | 419 kts | 259° |
| 2026-05-06 14:19 | 37.82050 | -105.79043 | 37907 ft | 419 kts | 259° |
| 2026-05-06 14:20 | 37.81067 | -105.86302 | 37908 ft | 419 kts | 259° |
| 2026-05-06 14:20 | 37.80080 | -105.93557 | 37893 ft | 419 kts | 259° |
| 2026-05-06 14:21 | 37.79583 | -105.97191 | 37917 ft | 419 kts | 259° |
| 2026-05-06 14:21 | 37.79154 | -106.00322 | 37925 ft | 419 kts | 260° |
| 2026-05-06 14:22 | 37.78156 | -106.07592 | 37942 ft | 419 kts | 260° |
| 2026-05-06 14:22 | 37.77152 | -106.14865 | 37972 ft | 420 kts | 260° |
| 2026-05-06 14:23 | 37.76143 | -106.22142 | 37998 ft | 420 kts | 260° |
| 2026-05-06 14:23 | 37.75129 | -106.29423 | 38005 ft | 421 kts | 260° |
| 2026-05-06 14:24 | 37.74109 | -106.36707 | 37988 ft | 421 kts | 260° |
| 2026-05-06 14:24 | 37.73085 | -106.43988 | 38011 ft | 421 kts | 260° |
| 2026-05-06 14:25 | 37.72061 | -106.51236 | 37994 ft | 422 kts | 260° |
| 2026-05-06 14:25 | 37.71024 | -106.58542 | 37962 ft | 423 kts | 260° |
| 2026-05-06 14:26 | 37.69983 | -106.65841 | 37936 ft | 423 kts | 260° |
| 2026-05-06 14:26 | 37.68941 | -106.73151 | 37890 ft | 423 kts | 260° |
| 2026-05-06 14:27 | 37.68386 | -106.76981 | 37901 ft | 423 kts | 260° |
| 2026-05-06 14:27 | 37.67327 | -106.84307 | 37882 ft | 425 kts | 260° |
| 2026-05-06 14:28 | 37.66263 | -106.91659 | 37915 ft | 424 kts | 260° |
| 2026-05-06 14:28 | 37.65200 | -106.98948 | 37893 ft | 426 kts | 260° |
| 2026-05-06 14:29 | 37.64140 | -107.06203 | 37888 ft | 427 kts | 260° |
| 2026-05-06 14:29 | 37.63057 | -107.13581 | 37905 ft | 428 kts | 260° |
| 2026-05-06 14:30 | 37.61968 | -107.20958 | 37907 ft | 427 kts | 260° |
| 2026-05-06 14:30 | 37.60876 | -107.28324 | 37912 ft | 427 kts | 260° |
| 2026-05-06 14:31 | 37.59779 | -107.35700 | 37911 ft | 428 kts | 260° |
| 2026-05-06 14:31 | 37.58676 | -107.43070 | 37895 ft | 429 kts | 260° |
| 2026-05-06 14:32 | 37.57563 | -107.50483 | 37924 ft | 431 kts | 260° |
| 2026-05-06 14:32 | 37.56435 | -107.57944 | 37921 ft | 434 kts | 260° |
| 2026-05-06 14:33 | 37.55312 | -107.65360 | 37916 ft | 432 kts | 260° |
| 2026-05-06 14:33 | 37.54180 | -107.72800 | 37926 ft | 432 kts | 260° |
| 2026-05-06 14:34 | 37.53043 | -107.80242 | 37905 ft | 432 kts | 260° |
| 2026-05-06 14:34 | 37.51905 | -107.87669 | 37926 ft | 431 kts | 260° |
| 2026-05-06 14:35 | 37.50761 | -107.95080 | 37901 ft | 431 kts | 260° |
| 2026-05-06 14:35 | 37.49740 | -108.02395 | 37912 ft | 430 kts | 264° |
| 2026-05-06 14:36 | 37.49174 | -108.09903 | 37920 ft | 431 kts | 265° |
| 2026-05-06 14:36 | 37.48670 | -108.17417 | 37928 ft | 432 kts | 265° |
| 2026-05-06 14:37 | 37.48133 | -108.24974 | 37919 ft | 433 kts | 265° |
| 2026-05-06 14:37 | 37.47573 | -108.32464 | 37937 ft | 428 kts | 265° |
| 2026-05-06 14:38 | 37.47293 | -108.36136 | 37943 ft | 415 kts | 265° |
| 2026-05-06 14:38 | 37.47019 | -108.39713 | 37960 ft | 410 kts | 265° |
| 2026-05-06 14:38 | 37.46469 | -108.46831 | 37980 ft | 408 kts | 265° |
| 2026-05-06 14:39 | 37.45917 | -108.53950 | 38002 ft | 408 kts | 265° |
| 2026-05-06 14:39 | 37.45361 | -108.61067 | 38018 ft | 409 kts | 265° |
| 2026-05-06 14:40 | 37.44797 | -108.68215 | 38017 ft | 410 kts | 265° |
| 2026-05-06 14:40 | 37.44233 | -108.75319 | 37904 ft | 411 kts | 265° |
| 2026-05-06 14:41 | 37.43658 | -108.82499 | 37894 ft | 413 kts | 265° |
| 2026-05-06 14:41 | 37.43077 | -108.89699 | 37896 ft | 415 kts | 265° |
| 2026-05-06 14:42 | 37.42488 | -108.96944 | 37888 ft | 417 kts | 265° |
| 2026-05-06 14:42 | 37.41904 | -109.04080 | 37887 ft | 418 kts | 265° |
| 2026-05-06 14:43 | 37.41303 | -109.11360 | 37899 ft | 419 kts | 265° |
| 2026-05-06 14:43 | 37.40696 | -109.18661 | 37914 ft | 419 kts | 265° |
| 2026-05-06 14:44 | 37.40088 | -109.25910 | 37942 ft | 420 kts | 265° |
| 2026-05-06 14:45 | 37.39241 | -109.35938 | 37964 ft | 420 kts | 265° |
| 2026-05-06 14:45 | 37.38618 | -109.43237 | 37976 ft | 420 kts | 265° |
| 2026-05-06 14:46 | 37.37991 | -109.50531 | 37970 ft | 419 kts | 265° |
| 2026-05-06 14:46 | 37.37360 | -109.57823 | 37958 ft | 419 kts | 265° |
| 2026-05-06 14:47 | 37.36726 | -109.65097 | 37946 ft | 419 kts | 265° |
| 2026-05-06 14:47 | 37.36091 | -109.72334 | 37878 ft | 419 kts | 265° |
| 2026-05-06 14:48 | 37.35447 | -109.79622 | 37876 ft | 419 kts | 265° |
| 2026-05-06 14:48 | 37.34797 | -109.86912 | 37871 ft | 419 kts | 265° |
| 2026-05-06 14:49 | 37.34144 | -109.94200 | 37883 ft | 420 kts | 265° |
| 2026-05-06 14:49 | 37.33497 | -110.01357 | 37877 ft | 421 kts | 265° |
| 2026-05-06 14:50 | 37.32832 | -110.08674 | 37872 ft | 422 kts | 265° |
| 2026-05-06 14:50 | 37.32161 | -110.16003 | 37854 ft | 423 kts | 265° |
| 2026-05-06 14:51 | 37.31488 | -110.23309 | 37869 ft | 424 kts | 265° |
| 2026-05-06 14:51 | 37.30804 | -110.30674 | 37872 ft | 425 kts | 265° |
| 2026-05-06 14:52 | 37.30114 | -110.38064 | 37873 ft | 426 kts | 265° |
| 2026-05-06 14:52 | 37.29424 | -110.45382 | 37864 ft | 426 kts | 265° |
| 2026-05-06 14:53 | 37.28722 | -110.52787 | 37864 ft | 427 kts | 265° |
| 2026-05-06 14:53 | 37.28015 | -110.60216 | 37868 ft | 428 kts | 265° |
| 2026-05-06 14:54 | 37.27300 | -110.67663 | 37872 ft | 430 kts | 266° |
| 2026-05-06 14:54 | 37.26578 | -110.75134 | 37878 ft | 432 kts | 266° |
| 2026-05-06 14:55 | 37.25849 | -110.82628 | 37855 ft | 433 kts | 266° |
| 2026-05-06 14:55 | 37.25117 | -110.90104 | 37871 ft | 435 kts | 266° |
| 2026-05-06 14:56 | 37.24372 | -110.97663 | 37874 ft | 437 kts | 266° |
| 2026-05-06 14:56 | 37.23630 | -111.05135 | 37893 ft | 438 kts | 266° |
| 2026-05-06 14:57 | 37.22872 | -111.12728 | 37885 ft | 439 kts | 266° |
| 2026-05-06 14:57 | 37.22108 | -111.20337 | 37888 ft | 439 kts | 266° |
| 2026-05-06 14:58 | 37.21590 | -111.27967 | 37918 ft | 438 kts | 270° |
| 2026-05-06 14:58 | 37.21340 | -111.35607 | 37925 ft | 439 kts | 271° |
| 2026-05-06 14:59 | 37.21125 | -111.41972 | 37937 ft | 439 kts | 270° |
| 2026-05-06 14:59 | 37.20829 | -111.49630 | 37935 ft | 440 kts | 270° |
| 2026-05-06 15:00 | 37.20514 | -111.57307 | 37881 ft | 441 kts | 270° |
| 2026-05-06 15:00 | 37.20195 | -111.64979 | 37886 ft | 440 kts | 270° |
| 2026-05-06 15:01 | 37.19860 | -111.72650 | 37892 ft | 441 kts | 268° |
| 2026-05-06 15:01 | 37.19173 | -111.76440 | 37896 ft | 445 kts | 254° |
| 2026-05-06 15:01 | 37.18164 | -111.80072 | 37874 ft | 446 kts | 254° |
| 2026-05-06 15:02 | 37.16102 | -111.87404 | 37888 ft | 446 kts | 254° |
| 2026-05-06 15:02 | 37.15079 | -111.91101 | 37671 ft | 453 kts | 255° |
| 2026-05-06 15:02 | 37.14052 | -111.94862 | 37421 ft | 458 kts | 255° |
| 2026-05-06 15:02 | 37.13025 | -111.98641 | 37152 ft | 458 kts | 255° |
| 2026-05-06 15:03 | 37.12048 | -112.02241 | 36897 ft | 455 kts | 255° |
| 2026-05-06 15:03 | 37.11032 | -112.05988 | 36633 ft | 455 kts | 255° |
| 2026-05-06 15:03 | 37.10013 | -112.09746 | 36404 ft | 457 kts | 255° |
| 2026-05-06 15:03 | 37.08986 | -112.13526 | 36130 ft | 459 kts | 256° |
| 2026-05-06 15:04 | 37.07954 | -112.17320 | 35872 ft | 461 kts | 256° |
| 2026-05-06 15:04 | 37.06914 | -112.21133 | 35654 ft | 464 kts | 256° |
| 2026-05-06 15:04 | 37.05872 | -112.24951 | 35409 ft | 465 kts | 256° |
| 2026-05-06 15:04 | 37.04821 | -112.28792 | 35175 ft | 467 kts | 256° |
| 2026-05-06 15:05 | 37.03768 | -112.32633 | 34932 ft | 467 kts | 256° |
| 2026-05-06 15:05 | 37.02723 | -112.36441 | 34708 ft | 467 kts | 256° |
| 2026-05-06 15:05 | 37.01680 | -112.40236 | 34472 ft | 465 kts | 257° |
| 2026-05-06 15:05 | 37.00628 | -112.44059 | 34237 ft | 464 kts | 257° |
| 2026-05-06 15:06 | 36.99567 | -112.47906 | 33992 ft | 462 kts | 258° |
| 2026-05-06 15:06 | 36.98534 | -112.51650 | 33725 ft | 461 kts | 258° |
| 2026-05-06 15:06 | 36.97489 | -112.55427 | 33463 ft | 459 kts | 258° |
| 2026-05-06 15:06 | 36.96447 | -112.59189 | 33214 ft | 458 kts | 257° |
| 2026-05-06 15:07 | 36.95406 | -112.62943 | 32970 ft | 456 kts | 257° |
| 2026-05-06 15:07 | 36.94365 | -112.66689 | 32723 ft | 453 kts | 257° |
| 2026-05-06 15:07 | 36.93331 | -112.70410 | 32477 ft | 451 kts | 257° |
| 2026-05-06 15:07 | 36.92304 | -112.74099 | 32238 ft | 448 kts | 257° |
| 2026-05-06 15:08 | 36.91282 | -112.77770 | 32012 ft | 446 kts | 257° |
| 2026-05-06 15:08 | 36.90265 | -112.81419 | 31746 ft | 444 kts | 257° |
| 2026-05-06 15:08 | 36.89250 | -112.85054 | 31512 ft | 442 kts | 257° |
| 2026-05-06 15:08 | 36.88240 | -112.88663 | 31272 ft | 439 kts | 257° |
| 2026-05-06 15:09 | 36.87231 | -112.92256 | 31035 ft | 437 kts | 257° |
| 2026-05-06 15:09 | 36.86227 | -112.95826 | 30746 ft | 432 kts | 257° |
| 2026-05-06 15:09 | 36.85235 | -112.99348 | 30391 ft | 428 kts | 257° |
| 2026-05-06 15:09 | 36.84282 | -113.02730 | 29984 ft | 425 kts | 257° |
| 2026-05-06 15:10 | 36.83304 | -113.06200 | 29539 ft | 422 kts | 257° |
| 2026-05-06 15:10 | 36.82335 | -113.09635 | 29115 ft | 417 kts | 257° |
| 2026-05-06 15:10 | 36.81375 | -113.13035 | 28678 ft | 413 kts | 256° |
| 2026-05-06 15:10 | 36.80434 | -113.16363 | 28280 ft | 409 kts | 256° |
| 2026-05-06 15:11 | 36.79491 | -113.19695 | 27855 ft | 406 kts | 256° |
| 2026-05-06 15:11 | 36.78541 | -113.23051 | 27438 ft | 403 kts | 256° |
| 2026-05-06 15:11 | 36.77621 | -113.26293 | 27031 ft | 400 kts | 256° |
| 2026-05-06 15:11 | 36.76697 | -113.29549 | 26626 ft | 397 kts | 256° |
| 2026-05-06 15:12 | 36.75766 | -113.32823 | 26218 ft | 394 kts | 256° |
| 2026-05-06 15:12 | 36.74865 | -113.35993 | 25826 ft | 391 kts | 256° |
| 2026-05-06 15:12 | 36.73956 | -113.39184 | 25416 ft | 389 kts | 255° |
| 2026-05-06 15:12 | 36.73050 | -113.42359 | 25038 ft | 387 kts | 255° |
| 2026-05-06 15:13 | 36.72148 | -113.45512 | 24683 ft | 384 kts | 255° |
| 2026-05-06 15:13 | 36.71261 | -113.48615 | 24494 ft | 376 kts | 255° |
| 2026-05-06 15:13 | 36.70388 | -113.51677 | 24156 ft | 374 kts | 255° |
| 2026-05-06 15:13 | 36.69520 | -113.54723 | 23801 ft | 372 kts | 255° |
| 2026-05-06 15:14 | 36.68656 | -113.57753 | 23419 ft | 370 kts | 255° |
| 2026-05-06 15:14 | 36.67795 | -113.60772 | 22990 ft | 369 kts | 255° |
| 2026-05-06 15:14 | 36.66934 | -113.63784 | 22582 ft | 367 kts | 255° |
| 2026-05-06 15:14 | 36.66080 | -113.66770 | 22194 ft | 364 kts | 255° |
| 2026-05-06 15:15 | 36.65232 | -113.69727 | 21818 ft | 362 kts | 255° |
| 2026-05-06 15:15 | 36.64397 | -113.72637 | 21454 ft | 360 kts | 255° |
| 2026-05-06 15:15 | 36.63557 | -113.75564 | 21062 ft | 358 kts | 255° |
| 2026-05-06 15:15 | 36.62719 | -113.78480 | 20686 ft | 356 kts | 255° |
| 2026-05-06 15:16 | 36.61887 | -113.81375 | 20328 ft | 354 kts | 255° |
| 2026-05-06 15:16 | 36.61058 | -113.84255 | 19965 ft | 352 kts | 255° |
| 2026-05-06 15:16 | 36.60232 | -113.87120 | 19606 ft | 351 kts | 254° |
| 2026-05-06 15:16 | 36.59410 | -113.89968 | 19242 ft | 349 kts | 254° |
| 2026-05-06 15:17 | 36.58823 | -113.91839 | 18997 ft | 351 kts | 248° |
| 2026-05-06 15:17 | 36.57435 | -113.94431 | 18664 ft | 353 kts | 235° |
| 2026-05-06 15:17 | 36.55913 | -113.96827 | 18312 ft | 353 kts | 234° |
| 2026-05-06 15:17 | 36.54383 | -113.99210 | 17880 ft | 352 kts | 234° |
| 2026-05-06 15:18 | 36.52953 | -114.01454 | 17525 ft | 350 kts | 234° |
| 2026-05-06 15:18 | 36.51453 | -114.03831 | 17154 ft | 348 kts | 235° |
| 2026-05-06 15:18 | 36.49971 | -114.06196 | 16788 ft | 346 kts | 235° |
| 2026-05-06 15:18 | 36.48500 | -114.08553 | 16421 ft | 344 kts | 235° |
| 2026-05-06 15:19 | 36.47041 | -114.10897 | 16070 ft | 342 kts | 235° |
| 2026-05-06 15:19 | 36.45591 | -114.13228 | 15712 ft | 340 kts | 235° |
| 2026-05-06 15:19 | 36.44151 | -114.15544 | 15365 ft | 338 kts | 235° |
| 2026-05-06 15:19 | 36.42717 | -114.17846 | 15019 ft | 336 kts | 235° |
| 2026-05-06 15:20 | 36.41293 | -114.20131 | 14665 ft | 334 kts | 235° |
| 2026-05-06 15:20 | 36.39882 | -114.22390 | 14509 ft | 327 kts | 234° |
| 2026-05-06 15:20 | 36.38487 | -114.24608 | 14184 ft | 325 kts | 234° |
| 2026-05-06 15:20 | 36.37088 | -114.26806 | 13866 ft | 324 kts | 234° |
| 2026-05-06 15:21 | 36.35691 | -114.28992 | 13500 ft | 323 kts | 234° |
| 2026-05-06 15:21 | 36.34297 | -114.31173 | 13132 ft | 322 kts | 234° |
| 2026-05-06 15:21 | 36.32910 | -114.33345 | 12785 ft | 320 kts | 234° |
| 2026-05-06 15:21 | 36.31534 | -114.35500 | 12444 ft | 318 kts | 234° |
| 2026-05-06 15:22 | 36.30165 | -114.37644 | 12110 ft | 316 kts | 234° |
| 2026-05-06 15:22 | 36.28806 | -114.39771 | 11771 ft | 314 kts | 234° |
| 2026-05-06 15:22 | 36.27448 | -114.41896 | 11449 ft | 313 kts | 233° |
| 2026-05-06 15:22 | 36.26091 | -114.44015 | 11113 ft | 312 kts | 234° |
| 2026-05-06 15:23 | 36.24751 | -114.46100 | 10783 ft | 311 kts | 233° |
| 2026-05-06 15:23 | 36.23416 | -114.48150 | 10465 ft | 309 kts | 233° |
| 2026-05-06 15:23 | 36.22064 | -114.50218 | 10136 ft | 308 kts | 233° |
| 2026-05-06 15:23 | 36.20734 | -114.52253 | 9990 ft | 299 kts | 233° |
| 2026-05-06 15:24 | 36.19440 | -114.54232 | 9805 ft | 294 kts | 233° |
| 2026-05-06 15:24 | 36.18158 | -114.56197 | 9466 ft | 292 kts | 233° |
| 2026-05-06 15:24 | 36.16889 | -114.58143 | 9204 ft | 290 kts | 233° |
| 2026-05-06 15:24 | 36.15622 | -114.60078 | 8927 ft | 287 kts | 233° |
| 2026-05-06 15:25 | 36.14413 | -114.61922 | 8836 ft | 266 kts | 233° |
| 2026-05-06 15:25 | 36.13288 | -114.63637 | 8695 ft | 247 kts | 233° |
| 2026-05-06 15:25 | 36.12241 | -114.65236 | 8572 ft | 231 kts | 233° |
| 2026-05-06 15:25 | 36.11265 | -114.66725 | 8438 ft | 216 kts | 234° |
| 2026-05-06 15:26 | 36.10335 | -114.68145 | 8305 ft | 210 kts | 234° |
| 2026-05-06 15:26 | 36.09433 | -114.69521 | 8230 ft | 206 kts | 234° |
| 2026-05-06 15:26 | 36.08551 | -114.70863 | 8113 ft | 197 kts | 234° |
| 2026-05-06 15:26 | 36.07703 | -114.72179 | 8010 ft | 194 kts | 239° |
| 2026-05-06 15:27 | 36.07341 | -114.73716 | 7781 ft | 185 kts | 281° |
| 2026-05-06 15:27 | 36.07512 | -114.75262 | 7609 ft | 185 kts | 271° |
| 2026-05-06 15:27 | 36.07418 | -114.76828 | 7422 ft | 185 kts | 271° |
| 2026-05-06 15:27 | 36.07424 | -114.78423 | 7211 ft | 186 kts | 273° |
| 2026-05-06 15:28 | 36.07431 | -114.80022 | 7000 ft | 183 kts | 272° |
| 2026-05-06 15:28 | 36.07430 | -114.80550 | 6925 ft | 180 kts | 272° |
| 2026-05-06 15:28 | 36.07426 | -114.81913 | 6730 ft | 172 kts | 272° |
| 2026-05-06 15:28 | 36.07422 | -114.83364 | 6525 ft | 165 kts | 272° |
| 2026-05-06 15:29 | 36.07417 | -114.84736 | 6398 ft | 156 kts | 272° |
| 2026-05-06 15:29 | 36.07414 | -114.86084 | 6203 ft | 157 kts | 272° |
| 2026-05-06 15:29 | 36.07410 | -114.87431 | 5999 ft | 155 kts | 271° |
| 2026-05-06 15:29 | 36.07407 | -114.88764 | 5809 ft | 155 kts | 271° |
| 2026-05-06 15:30 | 36.07402 | -114.90057 | 5589 ft | 150 kts | 271° |
| 2026-05-06 15:30 | 36.07400 | -114.91322 | 5398 ft | 145 kts | 271° |
| 2026-05-06 15:30 | 36.07397 | -114.92564 | 5220 ft | 147 kts | 270° |
| 2026-05-06 15:30 | 36.07394 | -114.93824 | 5023 ft | 148 kts | 270° |
| 2026-05-06 15:31 | 36.07391 | -114.95082 | 4821 ft | 145 kts | 269° |
| 2026-05-06 15:31 | 36.07388 | -114.96319 | 4634 ft | 144 kts | 269° |
| 2026-05-06 15:31 | 36.07386 | -114.97573 | 4454 ft | 145 kts | 268° |
| 2026-05-06 15:32 | 36.07382 | -115.00029 | 4076 ft | 145 kts | 269° |
| 2026-05-06 15:32 | 36.07380 | -115.01243 | 3888 ft | 146 kts | 269° |
| 2026-05-06 15:32 | 36.07378 | -115.02492 | 3700 ft | 145 kts | 269° |
| 2026-05-06 15:32 | 36.07377 | -115.03751 | 3510 ft | 144 kts | 269° |
| 2026-05-06 15:33 | 36.07374 | -115.04987 | 3322 ft | 144 kts | 268° |
| 2026-05-06 15:33 | 36.07372 | -115.06206 | 3121 ft | 147 kts | 269° |
| 2026-05-06 15:33 | 36.07371 | -115.07468 | 2937 ft | 148 kts | 269° |
| 2026-05-06 15:33 | 36.07370 | -115.08743 | 2733 ft | 149 kts | 268° |
| 2026-05-06 15:34 | 36.07369 | -115.09998 | 2551 ft | 147 kts | 266° |
| 2026-05-06 15:34 | 36.07369 | -115.11173 | 2345 ft | 148 kts | 268° |
| 2026-05-06 15:34 | 36.07368 | -115.12438 | 2137 ft | 147 kts | 267° |
| 2026-05-06 15:34 | 36.07367 | -115.12909 | 2082 ft | 146 kts | 267° |
| 2026-05-06 15:35 | 36.07368 | -115.13467 | 2074 ft | 137 kts | 267° |
| 2026-05-06 15:35 | 36.07369 | -115.14303 | 2087 ft | 109 kts | 270° |
| 2026-05-06 15:35 | 36.07365 | -115.15034 | 2096 ft | 55 kts | 270° |
| 2026-05-06 15:35 | 36.07422 | -115.15399 | 2105 ft | 28 kts | 300° |
| 2026-05-06 15:36 | 36.07468 | -115.15499 | 2105 ft | 6 kts | 298° |
| 2026-05-06 15:36 | 36.07494 | -115.15560 | 2106 ft | 12 kts | 293° |
| 2026-05-06 15:36 | 36.07500 | -115.15595 | 2107 ft | 0 kts | 278° |
| 2026-05-06 15:36 | 36.07525 | -115.15663 | 2111 ft | 15 kts | 344° |
| 2026-05-06 15:37 | 36.07629 | -115.15733 | 2120 ft | 25 kts | 311° |
| 2026-05-06 15:37 | 36.07754 | -115.15830 | 2115 ft | 19 kts | 359° |
| 2026-05-06 15:37 | 36.07807 | -115.15692 | 2106 ft | 21 kts | 92° |
| 2026-05-06 15:37 | 36.07806 | -115.15514 | 2102 ft | 22 kts | 90° |
| 2026-05-06 15:38 | 36.07806 | -115.15342 | 2101 ft | 19 kts | 90° |
| 2026-05-06 15:38 | 36.07805 | -115.15186 | 2100 ft | 19 kts | 90° |
| 2026-05-06 15:38 | 36.07801 | -115.15027 | 2099 ft | 18 kts | 95° |
| 2026-05-06 15:38 | 36.07790 | -115.14874 | 2098 ft | 18 kts | 94° |
| 2026-05-06 15:39 | 36.07780 | -115.14726 | 2097 ft | 17 kts | 95° |
| 2026-05-06 15:39 | 36.07770 | -115.14574 | 2096 ft | 19 kts | 95° |
| 2026-05-06 15:39 | 36.07768 | -115.14407 | 2096 ft | 19 kts | 91° |
| 2026-05-06 15:39 | 36.07759 | -115.14233 | 2094 ft | 26 kts | 94° |
| 2026-05-06 15:40 | 36.07753 | -115.13987 | 2092 ft | 24 kts | 91° |
| 2026-05-06 15:40 | 36.07758 | -115.13772 | 2092 ft | 28 kts | 88° |
| 2026-05-06 15:40 | 36.07755 | -115.13566 | 2091 ft | 24 kts | 89° |
| 2026-05-06 15:40 | 36.07754 | -115.13305 | 2087 ft | 26 kts | 91° |
| 2026-05-06 15:41 | 36.07755 | -115.13095 | 2081 ft | 29 kts | 89° |
| 2026-05-06 15:41 | 36.07757 | -115.12875 | 2071 ft | 25 kts | 88° |
| 2026-05-06 15:41 | 36.07758 | -115.12682 | 2064 ft | 13 kts | 90° |
| 2026-05-06 15:41 | 36.07866 | -115.12635 | 2062 ft | 21 kts | 2° |
| 2026-05-06 15:42 | 36.07979 | -115.12635 | 2062 ft | 17 kts | 360° |
| 2026-05-06 15:42 | 36.08105 | -115.12636 | 2062 ft | 20 kts | 0° |
| 2026-05-06 15:42 | 36.08205 | -115.12651 | 2063 ft | 14 kts | 302° |